Time;durP1;ratioP1;P1;durP2;ratioP2;P2;SDS_P1;SDS_P2;PMS_P1;PMS_P2;Temp;Humidity;BMP_temperature;BMP_pressure;BME280_temperature;BME280_humidity;BME280_pressure;Samples;Min_cycle;Max_cycle;Signal;HPM_P1;HPM_P2
2023/10/13 00:01:34;;;;;;;3.05;1.83;;;21.00;51.30;;;;;;5030722;28;20459;-50
2023/10/13 00:04:01;;;;;;;3.50;2.33;;;21.00;51.10;;;;;;5030647;28;20188;-47
2023/10/13 00:06:27;;;;;;;5.83;1.80;;;21.00;51.00;;;;;;5030286;28;20468;-50
2023/10/13 00:08:53;;;;;;;6.30;2.17;;;21.00;51.10;;;;;;5030316;28;20487;-47
2023/10/13 00:11:21;;;;;;;3.67;1.87;;;21.00;51.20;;;;;;5030700;28;20637;-50
2023/10/13 00:13:50;;;;;;;2.97;2.30;;;21.10;51.30;;;;;;5030355;28;20412;-48
2023/10/13 00:16:21;;;;;;;2.17;1.57;;;21.10;51.30;;;;;;5072453;28;20467;-49
2023/10/13 00:18:48;;;;;;;3.77;2.00;;;21.10;51.80;;;;;;5072724;28;20482;-50
2023/10/13 00:21:15;;;;;;;11.53;3.13;;;21.10;51.10;;;;;;5072452;28;20413;-51
2023/10/13 00:23:54;;;;;;;3.53;1.57;;;21.10;51.20;;;;;;5072699;28;20403;-50
2023/10/13 00:26:30;;;;;;;2.43;1.97;;;21.10;51.20;;;;;;5072383;28;20507;-50
2023/10/13 00:31:38;;;;;;;3.73;1.50;;;21.20;50.90;;;;;;5072569;28;20399;-48
2023/10/13 00:34:27;;;;;;;3.60;2.80;;;21.10;51.00;;;;;;5072301;28;20403;-50
2023/10/13 00:39:45;;;;;;;4.30;1.67;;;21.10;51.20;;;;;;5072519;28;20398;-52
2023/10/13 00:42:25;;;;;;;2.83;2.53;;;21.10;51.20;;;;;;5071250;28;20407;-50
2023/10/13 00:44:54;;;;;;;3.73;2.30;;;21.10;51.30;;;;;;5072155;28;21121;-48
2023/10/13 00:50:05;;;;;;;6.10;2.72;;;21.10;51.10;;;;;;5072190;28;20480;-50
2023/10/13 00:52:35;;;;;;;3.27;2.27;;;21.10;51.20;;;;;;5072085;28;20176;-48
2023/10/13 00:55:01;;;;;;;2.90;2.03;;;21.10;51.10;;;;;;5072223;28;20407;-48
2023/10/13 00:57:28;;;;;;;3.00;2.30;;;21.20;51.10;;;;;;5071642;28;20446;-51
2023/10/13 00:59:55;;;;;;;2.00;1.63;;;21.20;51.20;;;;;;5072166;28;20410;-49
2023/10/13 01:05:09;;;;;;;13.53;2.77;;;21.10;51.30;;;;;;5071884;28;20413;-49
2023/10/13 01:07:39;;;;;;;5.38;3.13;;;21.10;51.40;;;;;;5071911;28;20453;-50
2023/10/13 01:10:09;;;;;;;3.03;1.53;;;21.10;51.20;;;;;;5071860;28;20676;-48
2023/10/13 01:12:34;;;;;;;2.90;1.90;;;21.20;51.20;;;;;;5071802;28;20399;-50
2023/10/13 01:15:08;;;;;;;2.03;1.83;;;21.10;51.20;;;;;;5071845;28;20414;-51
2023/10/13 01:17:36;;;;;;;4.30;2.17;;;21.20;51.20;;;;;;5071544;28;20649;-48
2023/10/13 01:20:04;;;;;;;1.90;1.23;;;21.20;51.10;;;;;;5071775;28;20909;-51
2023/10/13 01:22:32;;;;;;;1.93;1.50;;;21.10;51.20;;;;;;5071767;28;20752;-52
2023/10/13 01:25:05;;;;;;;10.90;2.20;;;21.10;51.20;;;;;;5071810;28;20418;-48
2023/10/13 01:27:30;;;;;;;2.70;1.47;;;21.10;51.20;;;;;;5071496;28;20434;-51
2023/10/13 01:30:05;;;;;;;6.50;1.47;;;21.10;51.10;;;;;;5071546;28;20965;-51
2023/10/13 01:32:31;;;;;;;2.00;1.50;;;21.20;51.00;;;;;;5071718;28;20671;-48
2023/10/13 01:35:04;;;;;;;3.73;1.70;;;21.20;51.00;;;;;;5071524;28;20403;-48
2023/10/13 01:37:30;;;;;;;4.00;2.37;;;21.20;50.80;;;;;;5071498;28;20207;-50
2023/10/13 01:39:56;;;;;;;3.13;1.33;;;21.10;50.80;;;;;;5071679;28;20403;-49
2023/10/13 01:42:23;;;;;;;1.70;1.43;;;21.20;51.10;;;;;;5071526;28;20180;-49
2023/10/13 01:44:49;;;;;;;1.50;0.93;;;21.20;50.90;;;;;;5071541;28;20230;-49
2023/10/13 01:47:16;;;;;;;3.23;2.10;;;21.20;50.90;;;;;;5071179;28;20423;-50
2023/10/13 01:49:43;;;;;;;2.17;1.27;;;21.20;50.80;;;;;;5071523;28;20462;-50
2023/10/13 01:52:15;;;;;;;3.83;2.10;;;21.10;50.80;;;;;;5071415;28;20399;-47
2023/10/13 01:54:44;;;;;;;1.67;1.57;;;21.10;50.80;;;;;;5074758;28;20418;-49
2023/10/13 01:57:14;;;;;;;2.37;1.43;;;21.10;51.10;;;;;;5074889;28;20450;-50
2023/10/13 01:59:48;;;;;;;4.60;2.30;;;21.10;51.10;;;;;;5075459;28;20756;-50
2023/10/13 02:02:19;;;;;;;2.23;1.37;;;21.10;51.20;;;;;;5075403;28;20413;-48
2023/10/13 02:05:18;;;;;;;1.10;0.70;;;21.10;51.20;;;;;;5075162;28;20921;-51
2023/10/13 02:07:38;;;;;;;1.63;1.53;;;21.20;51.00;;;;;;5074552;28;20827;-50
2023/10/13 02:10:05;;;;;;;3.93;1.40;;;21.10;51.00;;;;;;5075179;28;20807;-48
2023/10/13 02:12:43;;;;;;;3.33;1.97;;;21.10;51.30;;;;;;5075194;28;20778;-51
2023/10/13 02:15:25;;;;;;;2.27;1.80;;;21.00;51.20;;;;;;5074926;28;20398;-49
2023/10/13 02:17:54;;;;;;;2.60;1.60;;;21.00;51.40;;;;;;5074634;28;20930;-49
2023/10/13 02:20:26;;;;;;;2.00;1.70;;;21.00;51.50;;;;;;5075081;28;20549;-50
2023/10/13 02:22:52;;;;;;;4.00;1.90;;;21.00;51.30;;;;;;5075065;28;20403;-48
2023/10/13 02:25:35;;;;;;;1.60;1.23;;;21.00;51.10;;;;;;5074835;28;20910;-49
2023/10/13 02:28:13;;;;;;;4.17;1.67;;;21.10;51.10;;;;;;5074557;28;20200;-47
2023/10/13 02:30:48;;;;;;;1.43;1.27;;;21.00;51.00;;;;;;5074738;28;20391;-48
2023/10/13 02:33:14;;;;;;;2.17;1.97;;;21.00;51.10;;;;;;5074922;28;20398;-50
2023/10/13 02:35:50;;;;;;;3.73;2.17;;;21.00;51.10;;;;;;5074331;28;20403;-48
2023/10/13 02:38:26;;;;;;;10.40;2.40;;;21.10;51.30;;;;;;5074668;28;20751;-48
2023/10/13 02:40:53;;;;;;;4.50;1.90;;;21.10;51.40;;;;;;5074437;28;20459;-49
2023/10/13 02:43:21;;;;;;;16.03;1.87;;;21.10;51.40;;;;;;5074674;28;20403;-51
2023/10/13 02:45:58;;;;;;;2.00;1.60;;;21.10;51.40;;;;;;5074346;28;20770;-47
2023/10/13 02:48:26;;;;;;;5.37;2.50;;;21.10;51.30;;;;;;5074314;28;20992;-52
2023/10/13 02:50:57;;;;;;;2.43;0.93;;;21.10;51.40;;;;;;5074440;28;20410;-51
2023/10/13 02:53:23;;;;;;;3.00;2.37;;;21.10;51.30;;;;;;5074156;28;20421;-48
2023/10/13 02:55:51;;;;;;;1.90;1.60;;;21.10;51.20;;;;;;5073857;28;20419;-48
2023/10/13 02:58:17;;;;;;;2.28;1.40;;;21.20;51.10;;;;;;5074519;28;20445;-50
2023/10/13 03:00:44;;;;;;;2.10;1.90;;;21.20;51.20;;;;;;5074390;28;20529;-48
2023/10/13 03:03:10;;;;;;;2.40;1.23;;;21.20;51.30;;;;;;5074291;28;20410;-48
2023/10/13 03:05:38;;;;;;;2.90;1.63;;;21.20;51.30;;;;;;5073035;28;20184;-52
2023/10/13 03:08:06;;;;;;;3.10;1.30;;;21.20;51.30;;;;;;5073746;28;20471;-49
2023/10/13 03:10:39;;;;;;;3.00;1.90;;;21.20;51.20;;;;;;5074309;28;20407;-49
2023/10/13 03:13:08;;;;;;;2.80;1.67;;;21.20;51.90;;;;;;5073962;28;20399;-51
2023/10/13 03:15:35;;;;;;;5.00;2.60;;;21.20;51.40;;;;;;5073743;28;20421;-48
2023/10/13 03:18:02;;;;;;;2.70;2.10;;;21.20;51.30;;;;;;5073653;28;20465;-51
2023/10/13 03:20:34;;;;;;;1.97;1.60;;;21.20;51.40;;;;;;5073719;28;20406;-51
2023/10/13 03:23:00;;;;;;;2.63;2.10;;;21.20;52.10;;;;;;5073678;28;20783;-49
2023/10/13 03:25:29;;;;;;;2.37;1.80;;;21.20;51.30;;;;;;5073757;28;20410;-52
2023/10/13 03:30:35;;;;;;;6.20;2.97;;;21.20;51.10;;;;;;5073594;28;20169;-51
2023/10/13 03:33:06;;;;;;;2.00;1.30;;;21.30;51.00;;;;;;5073461;28;20530;-50
2023/10/13 03:35:42;;;;;;;4.30;2.07;;;21.30;50.90;;;;;;5073410;28;20394;-48
2023/10/13 03:38:17;;;;;;;1.93;1.67;;;21.30;50.90;;;;;;5073588;28;20425;-49
2023/10/13 03:40:48;;;;;;;2.73;1.70;;;21.30;50.90;;;;;;5073467;28;20772;-48
2023/10/13 03:43:21;;;;;;;2.57;2.17;;;21.20;50.90;;;;;;5073276;28;20766;-49
2023/10/13 03:45:48;;;;;;;2.57;1.33;;;21.20;50.90;;;;;;5073004;28;20406;-48
2023/10/13 03:51:03;;;;;;;3.10;1.58;;;21.20;51.00;;;;;;5073250;28;20172;-51
2023/10/13 03:53:33;;;;;;;1.50;1.13;;;21.20;51.20;;;;;;5073095;28;20164;-51
2023/10/13 03:56:12;;;;;;;2.13;1.53;;;21.20;51.30;;;;;;5072615;28;20425;-51
2023/10/13 03:58:41;;;;;;;1.80;1.60;;;21.20;51.30;;;;;;5073022;28;20997;-51
2023/10/13 04:01:09;;;;;;;4.33;1.53;;;21.10;51.30;;;;;;5073100;28;20423;-51
2023/10/13 04:03:36;;;;;;;1.73;1.20;;;21.10;51.30;;;;;;5073011;28;20407;-48
2023/10/13 04:06:08;;;;;;;4.07;2.17;;;21.10;51.30;;;;;;5072536;28;20541;-48
2023/10/13 04:16:39;;;;;;;3.60;2.70;;;21.20;51.00;;;;;;5072399;28;20472;-51
2023/10/13 04:19:09;;;;;;;5.57;1.87;;;21.20;51.10;;;;;;5072549;28;20414;-50
2023/10/13 04:21:57;;;;;;;1.90;1.50;;;21.20;51.00;;;;;;5072481;28;20945;-49
2023/10/13 04:24:38;;;;;;;3.47;1.57;;;21.20;51.20;;;;;;5072547;28;20403;-51
2023/10/13 04:27:27;;;;;;;2.13;1.63;;;21.20;51.10;;;;;;5072116;28;20423;-51
2023/10/13 04:33:06;;;;;;;3.22;2.05;;;21.20;51.10;;;;;;5035169;28;20444;-51
2023/10/13 04:35:36;;;;;;;2.43;1.30;;;21.20;51.00;;;;;;5072073;28;20184;-51
2023/10/13 04:38:10;;;;;;;3.30;1.10;;;21.20;51.00;;;;;;5072217;28;20856;-48
2023/10/13 04:40:58;;;;;;;4.67;2.03;;;21.30;51.00;;;;;;5072415;28;20409;-50
2023/10/13 04:43:46;;;;;;;2.83;2.03;;;21.30;50.90;;;;;;5072410;28;20407;-49
2023/10/13 04:46:35;;;;;;;5.37;1.67;;;21.30;51.60;;;;;;5072199;28;20301;-51
2023/10/13 04:49:07;;;;;;;4.63;1.80;;;21.30;50.80;;;;;;5072022;28;20561;-51
2023/10/13 04:51:58;;;;;;;3.07;1.47;;;21.30;50.80;;;;;;5072114;28;20407;-51
2023/10/13 04:54:26;;;;;;;1.57;1.03;;;21.30;50.80;;;;;;5071957;28;20410;-50
2023/10/13 04:59:37;;;;;;;2.55;1.67;;;21.30;50.80;;;;;;5072300;28;20397;-49
2023/10/13 06:29:53;;;;;;;2.15;1.30;;;21.10;51.10;;;;;;5074662;28;20457;-51
2023/10/13 06:32:19;;;;;;;5.53;1.40;;;21.20;51.20;;;;;;5074718;28;20648;-48
2023/10/13 06:34:46;;;;;;;2.40;1.47;;;21.20;51.30;;;;;;5074789;28;20489;-52
2023/10/13 06:37:30;;;;;;;1.67;1.17;;;21.20;51.40;;;;;;5074516;28;20425;-49
2023/10/13 06:40:07;;;;;;;1.30;1.10;;;21.20;51.40;;;;;;5074601;28;20486;-51
2023/10/13 06:42:42;;;;;;;1.70;1.10;;;21.20;51.30;;;;;;5074673;28;20403;-49
2023/10/13 06:45:09;;;;;;;2.20;1.40;;;21.20;51.50;;;;;;5074461;28;20910;-49
2023/10/13 06:47:44;;;;;;;3.27;2.63;;;21.20;51.40;;;;;;5074192;28;20427;-51
2023/10/13 06:50:19;;;;;;;1.97;1.00;;;21.20;51.50;;;;;;5074316;28;20485;-49
2023/10/13 06:52:48;;;;;;;1.90;1.33;;;21.30;51.50;;;;;;5074396;28;20485;-51
2023/10/13 06:55:17;;;;;;;2.30;1.33;;;21.30;51.50;;;;;;5074038;28;20418;-51
2023/10/13 06:57:46;;;;;;;2.17;1.23;;;21.40;51.40;;;;;;5073948;28;20517;-50
2023/10/13 07:03:21;;;;;;;7.43;1.80;;;21.50;51.20;;;;;;5051742;28;20486;-50
2023/10/13 07:05:50;;;;;;;3.57;1.97;;;21.50;52.20;;;;;;5070350;28;20419;-52
2023/10/13 07:08:20;;;;;;;2.70;1.90;;;21.60;51.30;;;;;;5073952;28;20430;-49
2023/10/13 07:11:02;;;;;;;1.83;1.40;;;21.60;51.30;;;;;;5074030;28;20435;-53
2023/10/13 07:13:31;;;;;;;5.27;1.63;;;21.70;51.30;;;;;;5073928;28;20968;-50
2023/10/13 07:16:01;;;;;;;2.60;1.47;;;21.70;51.20;;;;;;5073492;28;20801;-52
2023/10/13 07:18:35;;;;;;;2.63;1.63;;;21.80;51.00;;;;;;5073865;28;20449;-49
2023/10/13 07:21:09;;;;;;;8.57;3.73;;;21.80;50.80;;;;;;5074014;28;20403;-48
2023/10/13 07:23:35;;;;;;;6.67;2.63;;;21.80;51.00;;;;;;5073894;28;20403;-53
2023/10/13 07:26:04;;;;;;;1.97;1.77;;;21.80;50.80;;;;;;5073401;28;20974;-54
2023/10/13 07:28:36;;;;;;;3.80;2.00;;;21.80;50.60;;;;;;5073449;28;20455;-50
2023/10/13 07:33:31;;;;;;;3.20;1.80;;;22.00;50.50;;;;;;5073702;28;20399;-50
2023/10/13 07:36:10;;;;;;;3.20;2.37;;;22.00;50.60;;;;;;5072185;28;20423;-50
2023/10/13 07:38:41;;;;;;;4.03;2.83;;;22.10;50.50;;;;;;5073401;28;20502;-51
2023/10/13 07:41:08;;;;;;;2.60;2.27;;;22.10;50.20;;;;;;5073674;28;20540;-49
2023/10/13 07:43:37;;;;;;;80.80;51.33;;;22.10;49.60;;;;;;5073473;28;20407;-49
2023/10/13 07:46:09;;;;;;;186.95;155.32;;;22.10;49.30;;;;;;5073097;28;20905;-51
2023/10/13 07:48:38;;;;;;;120.07;66.97;;;22.10;49.40;;;;;;5073170;28;20330;-49
2023/10/13 07:51:27;;;;;;;48.83;37.03;;;22.10;49.70;;;;;;5072688;28;20460;-53
2023/10/13 07:53:52;;;;;;;149.83;115.43;;;;;;;;;;5072592;28;20412;-53
2023/10/13 07:56:18;;;;;;;28.60;23.30;;;22.00;49.80;;;;;;5072747;28;20445;-49
2023/10/13 07:59:00;;;;;;;37.37;27.20;;;22.00;50.20;;;;;;5072935;28;20782;-52
2023/10/13 08:01:26;;;;;;;30.97;20.33;;;;;;;;;;5073002;28;20407;-49
2023/10/13 08:06:36;;;;;;;88.63;60.00;;;;;;;;;;5072618;28;20418;-49
2023/10/13 08:09:09;;;;;;;23.60;18.33;;;;;;;;;;5072695;28;20454;-49
2023/10/13 08:11:37;;;;;;;15.13;4.77;;;22.40;50.20;;;;;;5072887;28;20478;-52
2023/10/13 08:14:11;;;;;;;13.87;3.23;;;22.50;50.40;;;;;;5072563;28;20411;-49
2023/10/13 08:19:17;;;;;;;11.40;2.67;;;22.70;49.50;;;;;;5072642;28;20444;-51
2023/10/13 08:21:52;;;;;;;9.90;2.83;;;22.70;50.10;;;;;;5072551;28;20435;-48
2023/10/13 08:30:26;;;;;;;11.57;2.60;;;22.70;49.90;;;;;;5072437;28;20496;-52
2023/10/13 08:33:17;;;;;;;11.37;2.70;;;22.80;49.30;;;;;;5072310;28;20411;-50
2023/10/13 08:35:54;;;;;;;12.43;2.40;;;22.80;49.10;;;;;;5071844;28;20434;-48
2023/10/13 08:38:17;;;;;;;15.60;2.97;;;22.80;49.20;;;;;;5071746;28;20419;-51
2023/10/13 08:41:29;;;;;;;13.57;3.67;;;23.00;49.30;;;;;;5072304;28;20411;-51
2023/10/13 08:43:43;;;;;;;11.80;2.47;;;23.00;49.40;;;;;;5069237;28;20426;-50
2023/10/13 08:46:09;;;;;;;14.67;2.90;;;23.20;49.10;;;;;;5072088;28;20525;-49
2023/10/13 08:48:36;;;;;;;12.47;2.00;;;23.30;49.10;;;;;;5072145;28;20513;-51
2023/10/13 08:51:15;;;;;;;19.13;6.00;;;;;;;;;;5072163;28;20490;-48
2023/10/13 08:53:52;;;;;;;2.30;1.90;;;23.40;48.80;;;;;;5072061;28;20425;-50
2023/10/13 08:56:18;;;;;;;2.33;1.07;;;23.40;49.70;;;;;;5071646;28;20537;-52
2023/10/13 09:09:35;;;;;;;4.23;2.07;;;23.50;48.30;;;;;;5071931;28;20482;-51
2023/10/13 09:12:09;;;;;;;3.87;1.40;;;23.50;48.40;;;;;;5071955;28;21149;-51
2023/10/13 09:14:44;;;;;;;5.33;4.13;;;23.60;48.20;;;;;;5071773;28;20820;-48
2023/10/13 09:19:55;;;;;;;3.10;1.70;;;23.60;48.10;;;;;;5072018;28;20891;-50
2023/10/13 09:22:35;;;;;;;3.37;1.60;;;23.70;48.30;;;;;;5071794;28;20505;-52
2023/10/13 09:25:00;;;;;;;3.40;2.30;;;23.80;48.00;;;;;;5071648;28;20832;-51
2023/10/13 09:27:28;;;;;;;6.07;2.67;;;23.80;47.20;;;;;;5071620;28;20430;-50
2023/10/13 09:30:06;;;;;;;9.20;2.57;;;23.80;47.80;;;;;;5071735;28;20463;-50
2023/10/13 09:32:42;;;;;;;6.83;1.93;;;23.90;47.60;;;;;;5071837;28;20415;-54
2023/10/13 09:35:13;;;;;;;2.07;1.17;;;24.00;47.40;;;;;;5071676;28;20418;-53
2023/10/13 09:37:39;;;;;;;1.70;1.50;;;24.00;47.30;;;;;;5071307;28;20440;-48
2023/10/13 09:40:24;;;;;;;2.23;1.17;;;24.10;47.60;;;;;;5071803;28;20422;-53
2023/10/13 09:42:51;;;;;;;2.17;1.50;;;24.20;47.80;;;;;;5071752;28;20495;-50
2023/10/13 09:45:17;;;;;;;2.30;2.00;;;24.30;47.60;;;;;;5071426;28;20410;-50
2023/10/13 09:47:47;;;;;;;2.10;1.60;;;24.30;47.10;;;;;;5071300;28;20799;-52
2023/10/13 09:50:23;;;;;;;4.87;1.40;;;24.30;47.20;;;;;;5071412;28;20476;-51
2023/10/13 09:52:52;;;;;;;1.83;1.30;;;24.30;47.30;;;;;;5071472;28;20935;-49
2023/10/13 09:55:29;;;;;;;3.37;1.70;;;24.30;47.30;;;;;;5071425;28;20411;-50
2023/10/13 09:58:10;;;;;;;2.13;1.27;;;24.30;47.50;;;;;;5071298;28;20930;-50
2023/10/13 10:00:49;;;;;;;3.80;2.37;;;24.40;47.70;;;;;;5071328;28;20775;-50
2023/10/13 10:03:15;;;;;;;6.40;1.63;;;24.30;46.90;;;;;;5071580;28;20441;-51
2023/10/13 10:05:49;;;;;;;1.57;1.23;;;24.30;47.10;;;;;;5071154;28;20422;-49
2023/10/13 10:08:31;;;;;;;16.80;2.33;;;24.30;47.00;;;;;;5071442;28;20411;-49
2023/10/13 10:11:08;;;;;;;2.07;1.50;;;24.30;46.80;;;;;;5071282;28;20390;-54
2023/10/13 10:13:53;;;;;;;2.57;1.20;;;24.40;47.20;;;;;;5071469;28;20535;-50
2023/10/13 10:16:28;;;;;;;2.83;1.57;;;24.50;47.00;;;;;;5074716;28;20571;-53
2023/10/13 10:19:01;;;;;;;3.13;2.00;;;24.60;46.60;;;;;;5075175;28;20402;-52
2023/10/13 10:21:41;;;;;;;4.33;1.80;;;24.60;46.40;;;;;;5074855;28;20743;-50
2023/10/13 10:24:31;;;;;;;1.70;0.97;;;24.60;46.10;;;;;;5075053;28;20398;-53
2023/10/13 10:26:57;;;;;;;3.17;1.80;;;24.60;46.20;;;;;;5074654;28;20437;-51
2023/10/13 10:29:23;;;;;;;3.60;2.07;;;24.60;46.20;;;;;;5074636;28;20534;-49
2023/10/13 10:31:50;;;;;;;3.07;1.67;;;24.60;46.50;;;;;;5074645;28;20172;-50
2023/10/13 10:34:21;;;;;;;2.37;1.43;;;24.60;46.20;;;;;;5074647;28;20180;-51
2023/10/13 10:36:53;;;;;;;2.80;1.67;;;24.60;46.30;;;;;;5074539;28;20427;-50
2023/10/13 10:39:19;;;;;;;11.60;1.70;;;24.70;46.20;;;;;;5074739;28;20416;-48
2023/10/13 10:41:51;;;;;;;3.10;1.70;;;24.70;46.10;;;;;;5074628;28;20414;-53
2023/10/13 10:44:37;;;;;;;2.17;1.37;;;24.70;46.10;;;;;;5074384;28;20448;-50
2023/10/13 10:47:19;;;;;;;4.50;2.10;;;24.70;46.10;;;;;;5074260;28;20439;-51
2023/10/13 10:49:46;;;;;;;2.10;1.13;;;24.70;45.80;;;;;;5074461;28;20446;-48
2023/10/13 10:52:18;;;;;;;3.53;2.03;;;24.70;45.40;;;;;;5074316;28;20774;-52
2023/10/13 10:54:51;;;;;;;2.30;1.60;;;24.70;45.60;;;;;;5074290;28;20473;-49
2023/10/13 10:57:17;;;;;;;3.03;1.77;;;24.70;45.30;;;;;;5074008;28;20474;-49
2023/10/13 10:59:44;;;;;;;4.60;1.77;;;24.70;45.70;;;;;;5074296;28;20471;-52
2023/10/13 11:02:15;;;;;;;2.53;1.50;;;24.80;45.60;;;;;;5074154;28;20414;-51
2023/10/13 11:04:50;;;;;;;2.90;1.90;;;24.80;45.60;;;;;;5072972;28;20492;-48
2023/10/13 11:07:27;;;;;;;2.77;1.57;;;24.80;45.40;;;;;;5073819;28;20524;-50
2023/10/13 11:09:56;;;;;;;3.20;1.60;;;24.90;45.50;;;;;;5074129;28;20470;-50
2023/10/13 11:12:26;;;;;;;5.70;2.40;;;24.80;45.70;;;;;;5073997;28;20403;-50
2023/10/13 11:15:21;;;;;;;3.00;1.73;;;24.80;45.60;;;;;;5073876;28;20918;-51
2023/10/13 11:17:54;;;;;;;2.50;1.63;;;24.90;45.70;;;;;;5073895;28;20600;-49
2023/10/13 11:20:33;;;;;;;3.20;2.37;;;24.90;45.60;;;;;;5073834;28;20914;-52
2023/10/13 11:23:05;;;;;;;2.97;1.70;;;24.90;45.60;;;;;;5073830;28;20406;-51
2023/10/13 11:25:35;;;;;;;3.33;2.60;;;24.90;45.60;;;;;;5072948;28;20407;-50
2023/10/13 11:28:17;;;;;;;6.77;4.60;;;25.00;45.60;;;;;;5073178;28;20430;-50
2023/10/13 11:30:50;;;;;;;4.23;2.97;;;25.00;45.60;;;;;;5073611;28;20778;-50
2023/10/13 11:33:35;;;;;;;7.93;4.50;;;25.00;45.60;;;;;;5073685;28;20410;-50
2023/10/13 11:36:03;;;;;;;3.47;2.67;;;25.00;45.30;;;;;;5073087;28;20505;-50
2023/10/13 11:38:35;;;;;;;3.10;1.90;;;25.00;45.00;;;;;;5073036;28;20920;-50
2023/10/13 11:51:45;;;;;;;4.97;2.10;;;25.00;45.00;;;;;;5073410;28;20403;-51
2023/10/13 11:54:22;;;;;;;2.40;1.47;;;25.00;44.80;;;;;;5073151;28;20978;-53
2023/10/13 11:56:49;;;;;;;2.40;2.00;;;25.00;45.10;;;;;;5072699;28;20799;-50
2023/10/13 11:59:27;;;;;;;6.77;4.10;;;25.00;43.10;;;;;;5072867;28;20787;-50
2023/10/13 12:04:43;;;;;;;4.90;1.60;;;25.10;43.90;;;;;;5072821;28;20399;-50
2023/10/13 12:12:26;;;;;;;4.50;1.80;;;25.10;44.30;;;;;;5072756;28;20402;-51
2023/10/13 12:14:52;;;;;;;3.97;1.80;;;25.10;44.70;;;;;;5072812;28;20482;-53
2023/10/13 12:17:24;;;;;;;2.80;2.23;;;25.10;44.90;;;;;;5072428;28;20423;-49
2023/10/13 12:19:54;;;;;;;7.00;3.80;;;25.10;44.60;;;;;;5072730;28;20414;-50
2023/10/13 12:22:35;;;;;;;3.43;2.70;;;25.10;44.70;;;;;;5072594;28;20426;-51
2023/10/13 12:25:05;;;;;;;3.37;1.60;;;25.10;44.80;;;;;;5072737;28;20411;-50
2023/10/13 12:27:45;;;;;;;2.70;2.13;;;25.10;45.20;;;;;;5072107;28;20434;-51
2023/10/13 12:30:13;;;;;;;2.17;1.97;;;25.10;45.30;;;;;;5072478;28;20485;-49
2023/10/13 12:32:44;;;;;;;3.97;1.97;;;25.10;45.50;;;;;;5072345;28;20415;-53
2023/10/13 12:53:55;;;;;;;3.43;2.00;;;25.10;44.80;;;;;;5055983;28;20506;-48
2023/10/13 12:56:28;;;;;;;2.17;1.90;;;24.10;44.80;;;;;;5071729;28;20454;-51
2023/10/13 12:58:54;;;;;;;3.77;3.40;;;25.10;45.50;;;;;;5072188;28;20403;-50
2023/10/13 13:01:25;;;;;;;3.20;1.87;;;25.00;45.70;;;;;;5072002;28;20411;-49
2023/10/13 13:03:55;;;;;;;3.50;2.93;;;25.10;45.40;;;;;;5071935;28;20772;-52
2023/10/13 13:06:26;;;;;;;7.27;4.20;;;25.00;45.40;;;;;;5071827;28;20504;-50
2023/10/13 13:08:52;;;;;;;5.27;2.80;;;25.00;45.50;;;;;;5071844;28;20447;-50
2023/10/13 13:11:18;;;;;;;7.90;3.60;;;25.10;45.50;;;;;;5071801;28;20407;-49
2023/10/13 13:13:46;;;;;;;3.70;2.73;;;25.10;45.60;;;;;;5071792;28;20399;-52
2023/10/13 13:16:13;;;;;;;7.33;3.60;;;25.10;45.50;;;;;;5071449;28;20188;-50
2023/10/13 13:18:39;;;;;;;11.37;3.23;;;25.10;45.50;;;;;;5071963;28;20402;-51
2023/10/13 13:21:06;;;;;;;5.13;2.60;;;25.10;45.40;;;;;;5071920;28;20782;-52
2023/10/13 13:23:34;;;;;;;4.37;2.63;;;25.10;45.50;;;;;;5071763;28;20986;-50
2023/10/13 13:26:00;;;;;;;4.00;2.60;;;25.20;45.40;;;;;;5071423;28;20414;-52
2023/10/13 13:28:28;;;;;;;3.70;2.40;;;25.20;44.90;;;;;;5071607;28;20472;-54
2023/10/13 13:30:55;;;;;;;3.27;2.07;;;25.30;44.80;;;;;;5071680;28;20461;-50
2023/10/13 13:33:25;;;;;;;3.33;2.20;;;25.40;44.70;;;;;;5071925;28;20419;-49
2023/10/13 13:35:54;;;;;;;3.43;2.80;;;25.40;44.00;;;;;;5071381;28;20833;-51
2023/10/13 13:38:27;;;;;;;4.20;2.77;;;25.50;44.20;;;;;;5071733;28;20415;-50
2023/10/13 13:40:56;;;;;;;3.40;2.20;;;25.60;43.90;;;;;;5071665;28;20403;-49
2023/10/13 13:43:35;;;;;;;3.10;1.57;;;25.70;43.50;;;;;;5071520;28;20405;-51
2023/10/13 13:46:02;;;;;;;3.30;2.20;;;25.70;43.30;;;;;;5071212;28;20914;-50
2023/10/13 13:48:28;;;;;;;4.10;2.00;;;25.80;42.70;;;;;;5071453;28;20498;-52
2023/10/13 13:51:04;;;;;;;4.60;2.27;;;25.80;42.60;;;;;;5075201;28;20399;-50
2023/10/13 13:53:34;;;;;;;2.57;2.10;;;25.90;42.60;;;;;;5075508;28;20462;-52
2023/10/13 13:56:03;;;;;;;5.03;2.50;;;25.90;43.00;;;;;;5074941;28;21218;-53
2023/10/13 13:58:32;;;;;;;3.90;2.13;;;26.00;42.70;;;;;;5075597;28;20422;-50
2023/10/13 14:01:12;;;;;;;2.70;2.20;;;26.10;42.90;;;;;;5075447;28;20403;-52
2023/10/13 14:03:52;;;;;;;4.63;1.93;;;26.10;42.60;;;;;;5075326;28;20886;-52
2023/10/13 14:06:21;;;;;;;6.13;3.47;;;26.20;41.90;;;;;;5074833;28;20999;-49
2023/10/13 14:08:51;;;;;;;4.73;2.00;;;26.30;42.00;;;;;;5074967;28;20465;-52
2023/10/13 14:12:25;;;;;;;2.70;1.77;;;26.30;40.90;;;;;;5075292;28;20406;-53
2023/10/13 14:16:50;;;;;;;3.13;2.30;;;26.40;41.20;;;;;;5074685;28;21000;-50
2023/10/13 14:19:26;;;;;;;5.50;1.90;;;26.50;41.50;;;;;;5074970;28;20418;-50
2023/10/13 14:21:59;;;;;;;1.97;1.37;;;26.50;41.50;;;;;;5074894;28;20414;-52
2023/10/13 14:24:33;;;;;;;2.97;2.13;;;26.50;41.30;;;;;;5074713;28;20893;-51
2023/10/13 14:27:11;;;;;;;2.93;2.03;;;26.50;40.40;;;;;;5074569;28;20431;-50
2023/10/13 14:29:40;;;;;;;3.50;2.50;;;26.60;40.60;;;;;;5075066;28;20549;-52
2023/10/13 14:32:13;;;;;;;4.80;2.67;;;26.60;40.90;;;;;;5074714;28;20414;-51
2023/10/13 14:34:40;;;;;;;4.13;2.67;;;26.60;40.90;;;;;;5074782;28;20434;-53
2023/10/13 14:37:07;;;;;;;2.93;2.07;;;26.60;40.00;;;;;;5074383;28;20430;-49
2023/10/13 14:39:34;;;;;;;3.00;2.07;;;26.70;39.40;;;;;;5074528;28;20763;-50
2023/10/13 14:42:02;;;;;;;5.40;3.83;;;26.60;39.50;;;;;;5074775;28;20418;-52
2023/10/13 14:44:28;;;;;;;3.47;2.33;;;26.60;39.30;;;;;;5074660;28;20414;-49
2023/10/13 14:46:57;;;;;;;4.50;2.90;;;26.50;40.20;;;;;;5074102;28;20437;-49
2023/10/13 14:49:23;;;;;;;6.00;3.50;;;26.50;40.60;;;;;;5074324;28;20454;-52
2023/10/13 14:51:49;;;;;;;4.00;2.53;;;26.40;40.90;;;;;;5074309;28;20399;-49
2023/10/13 14:54:15;;;;;;;3.73;2.50;;;26.50;40.90;;;;;;5074194;28;20177;-54
2023/10/13 14:56:42;;;;;;;4.43;3.50;;;26.60;41.10;;;;;;5073975;28;20486;-50
2023/10/13 14:59:16;;;;;;;2.63;1.77;;;26.60;40.40;;;;;;5074467;28;20468;-49
2023/10/13 15:01:42;;;;;;;6.47;3.50;;;26.60;39.90;;;;;;5073014;28;20812;-50
2023/10/13 15:04:08;;;;;;;4.90;3.53;;;26.60;40.40;;;;;;5074090;28;20422;-52
2023/10/13 15:06:34;;;;;;;3.30;2.90;;;26.70;41.20;;;;;;5073648;28;20438;-52
2023/10/13 15:09:00;;;;;;;2.80;2.50;;;26.60;40.50;;;;;;5073876;28;20200;-50
2023/10/13 15:11:35;;;;;;;1.87;1.67;;;26.60;40.60;;;;;;5074049;28;20183;-55
2023/10/13 15:14:02;;;;;;;3.13;2.20;;;26.60;40.30;;;;;;5074031;28;21125;-48
2023/10/13 15:16:27;;;;;;;1.67;1.37;;;26.50;40.50;;;;;;5073675;28;20427;-51
2023/10/13 15:18:55;;;;;;;3.47;2.10;;;26.50;38.80;;;;;;5073916;28;20504;-51
2023/10/13 15:22:21;;;;;;;2.93;2.63;;;26.50;39.80;;;;;;5073794;28;20206;-51
2023/10/13 15:24:13;;;;;;;4.33;2.07;;;26.50;40.20;;;;;;5069942;28;20451;-49
2023/10/13 15:26:44;;;;;;;2.90;2.23;;;26.50;40.50;;;;;;5073595;28;20942;-51
2023/10/13 15:29:12;;;;;;;7.50;2.57;;;26.50;40.60;;;;;;5073659;28;20489;-50
2023/10/13 15:31:41;;;;;;;3.03;2.20;;;26.40;40.60;;;;;;5073583;28;20945;-49
2023/10/13 15:34:17;;;;;;;8.73;1.77;;;26.30;40.20;;;;;;5073892;28;20410;-52
2023/10/13 15:36:44;;;;;;;2.67;2.47;;;26.30;40.00;;;;;;5073362;28;20426;-49
2023/10/13 15:39:10;;;;;;;3.27;2.80;;;26.30;39.80;;;;;;5073667;28;20415;-49
2023/10/13 15:41:40;;;;;;;2.93;1.97;;;26.20;39.50;;;;;;5073455;28;20418;-52
2023/10/13 15:44:11;;;;;;;6.03;2.60;;;26.10;39.40;;;;;;5073308;28;20815;-49
2023/10/13 15:46:37;;;;;;;5.43;3.20;;;26.10;39.80;;;;;;5073061;28;20491;-50
2023/10/13 15:49:05;;;;;;;6.03;2.90;;;26.10;40.80;;;;;;5073362;28;20810;-52
2023/10/13 15:51:39;;;;;;;6.63;3.23;;;26.00;40.20;;;;;;5073415;28;20417;-49
2023/10/13 15:54:11;;;;;;;4.67;2.40;;;26.00;39.50;;;;;;5073345;28;20411;-50
2023/10/13 15:56:39;;;;;;;3.37;2.00;;;26.00;39.40;;;;;;5072753;28;20451;-49
2023/10/13 15:59:07;;;;;;;3.63;3.10;;;25.90;38.80;;;;;;5073132;28;20932;-50
2023/10/13 16:01:33;;;;;;;2.77;2.00;;;25.90;38.90;;;;;;5073300;28;20418;-48
2023/10/13 16:03:59;;;;;;;2.60;2.03;;;25.80;39.40;;;;;;5073052;28;20415;-51
2023/10/13 16:06:25;;;;;;;5.97;2.13;;;25.70;38.90;;;;;;5072716;28;20485;-49
2023/10/13 16:08:52;;;;;;;4.17;2.60;;;25.80;39.00;;;;;;5072874;28;20450;-50
2023/10/13 16:11:19;;;;;;;3.27;2.33;;;25.70;39.60;;;;;;5072834;28;20517;-51
2023/10/13 16:13:46;;;;;;;9.67;2.87;;;25.70;39.60;;;;;;5072487;28;20417;-49
2023/10/13 16:16:19;;;;;;;3.73;2.37;;;25.60;40.00;;;;;;5072649;28;20427;-50
2023/10/13 16:18:47;;;;;;;3.50;2.37;;;25.60;39.50;;;;;;5072948;28;20410;-51